createdAt,value
2022-11-24T00:00:59.828Z,8.3
2022-11-24T00:06:48.107Z,8.4
2022-11-24T00:12:48.005Z,8.4
2022-11-24T00:18:48.132Z,8.4
2022-11-24T00:24:47.230Z,8.4
2022-11-24T00:30:55.684Z,8.4
2022-11-24T00:36:47.631Z,8.4
2022-11-24T00:42:47.486Z,8.4
2022-11-24T00:48:47.237Z,8.2
2022-11-24T00:54:47.653Z,8.2
2022-11-24T01:00:59.620Z,8.1
2022-11-24T01:06:47.401Z,8.2
2022-11-24T01:12:47.333Z,8.2
2022-11-24T01:18:47.410Z,8.3
2022-11-24T01:24:48.116Z,8.4
2022-11-24T01:30:55.406Z,8.5
2022-11-24T01:36:47.059Z,8.5
2022-11-24T01:42:47.478Z,8.5
2022-11-24T01:48:47.052Z,8.5
2022-11-24T01:54:47.077Z,8.5
2022-11-24T02:00:57.605Z,8.6
2022-11-24T02:06:47.078Z,8.6
2022-11-24T02:12:47.381Z,8.7
2022-11-24T02:18:47.539Z,8.8
2022-11-24T02:24:47.016Z,8.8
2022-11-24T02:30:48.106Z,8.9
2022-11-24T02:36:47.194Z,8.9
2022-11-24T02:42:47.748Z,9
2022-11-24T02:48:48.758Z,9
2022-11-24T02:54:50.972Z,9.1
2022-11-24T03:01:04.406Z,9.1
2022-11-24T03:06:54.794Z,9
2022-11-24T03:12:58.250Z,9.1
2022-11-24T03:18:49.579Z,9.1
2022-11-24T03:24:58.957Z,9.2
2022-11-24T03:31:00.242Z,9.3
2022-11-24T03:37:02.467Z,9.3
2022-11-24T03:42:52.145Z,9.5
2022-11-24T03:48:51.168Z,9.5
2022-11-24T03:54:51.433Z,9.7
2022-11-24T04:01:07.162Z,9.7
2022-11-24T04:06:48.807Z,9.8
2022-11-24T04:12:53.263Z,9.8
2022-11-24T04:18:52.642Z,9.9
2022-11-24T04:24:55.188Z,9.9
2022-11-24T04:30:56.207Z,9.9
2022-11-24T04:36:48.378Z,9.9
2022-11-24T04:42:48.476Z,9.9
2022-11-24T04:48:55.137Z,10
2022-11-24T04:54:55.179Z,10
2022-11-24T05:00:59.728Z,10.1
2022-11-24T05:06:58.629Z,10.1
2022-11-24T05:12:58.458Z,10.1
2022-11-24T05:19:04.002Z,10.1
2022-11-24T05:24:56.912Z,10.2
2022-11-24T05:31:03.824Z,10.3
2022-11-24T05:36:51.991Z,10.3
2022-11-24T05:43:07.002Z,10.2
2022-11-24T05:48:48.841Z,10.3
2022-11-24T05:54:52.084Z,10.4
2022-11-24T06:01:09.441Z,10.4
2022-11-24T06:07:02.364Z,10.4
2022-11-24T06:12:55.312Z,10.5
2022-11-24T06:18:52.533Z,10.5
2022-11-24T06:24:50.893Z,10.6
2022-11-24T06:31:07.154Z,10.5
2022-11-24T06:37:00.600Z,10.5
2022-11-24T06:43:05.073Z,10.5
2022-11-24T06:48:53.769Z,10.6
2022-11-24T06:54:51.073Z,10.5
2022-11-24T07:00:57.756Z,10.5
2022-11-24T07:06:51.373Z,10.5
2022-11-24T07:12:54.205Z,10.5
2022-11-24T07:18:55.161Z,10.5
2022-11-24T07:24:54.994Z,10.5
2022-11-24T07:30:58.711Z,10.6
2022-11-24T07:36:51.977Z,10.4
2022-11-24T07:42:54.173Z,10.5
2022-11-24T07:49:04.921Z,10.4
2022-11-24T07:54:50.555Z,10.4
2022-11-24T08:01:04.533Z,10.4
2022-11-24T08:06:55.413Z,10.4
2022-11-24T08:13:05.358Z,10.4
2022-11-24T08:18:59.173Z,10.4
2022-11-24T08:24:56.378Z,10.5
2022-11-24T08:30:56.934Z,10.7
2022-11-24T08:36:54.313Z,10.7
2022-11-24T08:43:01.050Z,10.8
2022-11-24T08:49:00.370Z,10.9
2022-11-24T08:54:57.092Z,11
2022-11-24T09:01:13.377Z,11.2
2022-11-24T09:06:51.364Z,11.3
2022-11-24T09:13:02.365Z,11.2
2022-11-24T09:18:59.750Z,11.4
2022-11-24T09:25:16.048Z,11.4
2022-11-24T09:30:57.152Z,11.5
2022-11-24T09:36:53.244Z,11.6
2022-11-24T09:42:53.350Z,11.6
2022-11-24T09:48:47.378Z,11.7
2022-11-24T09:54:50.329Z,11.6
2022-11-24T10:00:58.424Z,11.4
2022-11-24T10:06:50.976Z,11.5
2022-11-24T10:12:49.977Z,11.7
2022-11-24T10:18:47.199Z,11.7
2022-11-24T10:24:48.012Z,11.7
2022-11-24T10:30:57.821Z,12.2
2022-11-24T10:36:48.814Z,12.2
2022-11-24T10:42:49.982Z,12.4
2022-11-24T10:48:56.848Z,12.6
2022-11-24T10:54:48.079Z,12.6
2022-11-24T11:00:55.563Z,12.5
2022-11-24T11:06:47.826Z,12.6
2022-11-24T11:12:49.008Z,12.9
2022-11-24T11:18:50.759Z,13.4
2022-11-24T11:24:48.657Z,13.4
2022-11-24T11:31:21.403Z,13.5
2022-11-24T11:36:58.276Z,13.5
2022-11-24T11:43:05.992Z,13.9
2022-11-24T11:48:49.914Z,13.8
2022-11-24T11:54:47.289Z,13.8
2022-11-24T12:00:51.613Z,14.1
2022-11-24T12:06:47.185Z,14.3
2022-11-24T12:12:47.725Z,14.3
2022-11-24T12:19:01.247Z,14.6
2022-11-24T12:24:49.175Z,14.6
2022-11-24T12:30:47.063Z,15.1
2022-11-24T12:36:47.030Z,15.2
2022-11-24T12:42:47.053Z,15.2
2022-11-24T12:48:47.190Z,15.2
2022-11-24T12:54:47.964Z,15.7
2022-11-24T13:00:47.390Z,15.8
2022-11-24T13:06:49.280Z,15.8
2022-11-24T13:12:47.154Z,16.2
2022-11-24T13:18:47.457Z,16.4
2022-11-24T13:24:47.084Z,16.7
2022-11-24T13:30:47.482Z,16.6
2022-11-24T13:36:47.002Z,16.5
2022-11-24T13:42:47.134Z,16.5
2022-11-24T13:48:47.154Z,16.5
2022-11-24T13:54:47.270Z,16.4
2022-11-24T14:00:47.155Z,15.7
2022-11-24T14:06:47.320Z,15.4
2022-11-24T14:12:47.347Z,14.9
2022-11-24T14:18:47.517Z,14.8
2022-11-24T14:24:48.000Z,14.8
2022-11-24T14:30:49.864Z,14.5
2022-11-24T14:36:47.448Z,14.4
2022-11-24T14:42:47.339Z,14.2
2022-11-24T14:48:48.500Z,14.1
2022-11-24T14:54:47.905Z,14.1
2022-11-24T15:00:51.953Z,14.1
2022-11-24T15:06:47.330Z,13.9
2022-11-24T15:12:48.322Z,13.9
2022-11-24T15:18:47.574Z,13.8
2022-11-24T15:24:47.357Z,13.6
2022-11-24T15:30:50.984Z,13.6
2022-11-24T15:36:47.275Z,13.2
2022-11-24T15:42:48.595Z,13
2022-11-24T15:48:47.629Z,12.9
2022-11-24T15:54:47.658Z,12.7
2022-11-24T16:00:57.467Z,12.6
2022-11-24T16:06:47.533Z,12.5
2022-11-24T16:12:47.664Z,12.4
2022-11-24T16:18:48.159Z,12.3
2022-11-24T16:24:47.769Z,12.1
2022-11-24T16:30:56.694Z,12
2022-11-24T16:36:47.785Z,11.9
2022-11-24T16:42:48.507Z,11.8
2022-11-24T16:48:48.099Z,11.7
2022-11-24T16:54:48.137Z,11.7
2022-11-24T17:00:55.437Z,11.6
2022-11-24T17:06:47.798Z,11.6
2022-11-24T17:12:47.903Z,11.5
2022-11-24T17:18:47.550Z,11.4
2022-11-24T17:24:47.644Z,11.4
2022-11-24T17:30:58.733Z,11.4
2022-11-24T17:36:47.889Z,11.4
2022-11-24T17:42:48.280Z,11.3
2022-11-24T17:48:47.425Z,11.3
2022-11-24T17:54:47.466Z,11.2
2022-11-24T18:00:58.772Z,11.1
2022-11-24T18:06:47.318Z,11
2022-11-24T18:12:47.526Z,10.9
2022-11-24T18:18:50.218Z,10.9
2022-11-24T18:24:47.433Z,10.9
2022-11-24T18:30:58.161Z,10.7
2022-11-24T18:36:47.571Z,10.5
2022-11-24T18:42:47.875Z,10.5
2022-11-24T18:48:48.401Z,10.4
2022-11-24T18:54:48.217Z,10.3
2022-11-24T19:01:00.734Z,10.3
2022-11-24T19:06:48.147Z,10.2
2022-11-24T19:12:47.931Z,10.1
2022-11-24T19:18:51.950Z,10.1
2022-11-24T19:24:47.581Z,10
2022-11-24T19:30:58.089Z,9.9
2022-11-24T19:36:48.328Z,9.9
2022-11-24T19:42:47.830Z,9.8
2022-11-24T19:48:47.922Z,9.7
2022-11-24T19:54:48.132Z,9.7
2022-11-24T20:00:57.063Z,9.5
2022-11-24T20:06:47.715Z,9.4
2022-11-24T20:12:48.611Z,9.4
2022-11-24T20:18:47.953Z,9.3
2022-11-24T20:24:48.299Z,9.4
2022-11-24T20:31:03.397Z,9.4
2022-11-24T20:36:47.624Z,9.4
2022-11-24T20:42:47.821Z,9.3
2022-11-24T20:48:47.594Z,9.1
2022-11-24T20:54:47.596Z,9.1
2022-11-24T21:00:59.364Z,9.1
2022-11-24T21:06:47.543Z,9.1
2022-11-24T21:12:47.922Z,8.9
2022-11-24T21:18:48.165Z,8.9
2022-11-24T21:24:48.704Z,8.9
2022-11-24T21:31:02.601Z,8.9
2022-11-24T21:36:48.359Z,8.9
2022-11-24T21:42:47.684Z,8.9
2022-11-24T21:48:47.481Z,8.7
2022-11-24T21:54:48.171Z,8.7
2022-11-24T22:01:02.480Z,8.9
2022-11-24T22:06:48.303Z,8.9
2022-11-24T22:12:50.957Z,9
2022-11-24T22:18:58.054Z,8.9
2022-11-24T22:24:54.339Z,8.9
2022-11-24T22:31:03.989Z,8.9
2022-11-24T22:36:54.347Z,8.9
2022-11-24T22:43:01.236Z,9
2022-11-24T22:48:54.866Z,9
2022-11-24T22:54:54.272Z,9
2022-11-24T23:01:00.954Z,9.1
2022-11-24T23:07:00.414Z,9.1
2022-11-24T23:12:57.623Z,9.2
2022-11-24T23:18:57.014Z,9.2
2022-11-24T23:25:07.290Z,9.2
2022-11-24T23:30:59.325Z,9.2
2022-11-24T23:37:03.011Z,9.2
2022-11-24T23:43:07.715Z,9.1
2022-11-24T23:48:49.082Z,9.3
2022-11-24T23:54:50.611Z,9.3
